Terminal Aerodrome Forecast
Issued by NWS

Current Version | Previous Version | Text Only | Print | Product List | Glossary On
Versions: 1 2 3 4 5 6 7 8 9 10 11 12 13 14 15 16
000
FTUS41 KILN 191700
TAFLUK
TAF
KLUK 191740Z 1918/2018 07010G18KT P6SM SKC
     FM200000 06005KT P6SM SKC
     FM200600 00000KT P6SM SKC
     FM201400 14005KT P6SM BKN250=

USA.gov is the U.S. government's official web portal to all federal, state and local government web resources and services.